Time;durP1;ratioP1;P1;durP2;ratioP2;P2;SDS_P1;SDS_P2;PMS_P1;PMS_P2;Temp;Humidity;BMP_temperature;BMP_pressure;BME280_temperature;BME280_humidity;BME280_pressure;Samples;Min_cycle;Max_cycle;Signal;HPM_P1;HPM_P2
2022/01/22 00:02:02;;;;;;;8.40;4.95;;;5.40;51.50;;;;;;5058373;28;20127;-79
2022/01/22 00:04:28;;;;;;;7.20;4.07;;;5.20;52.00;;;;;;5076229;28;20078;-80
2022/01/22 00:06:55;;;;;;;25.42;13.48;;;5.10;51.90;;;;;;5076420;28;20062;-86
2022/01/22 00:09:25;;;;;;;21.20;13.50;;;5.10;51.60;;;;;;5057843;28;20040;-79
2022/01/22 00:11:53;;;;;;;19.33;9.90;;;5.20;51.90;;;;;;5058561;28;20115;-80
2022/01/22 00:14:25;;;;;;;17.25;10.98;;;5.00;52.00;;;;;;5076430;28;20028;-79
2022/01/22 00:16:57;;;;;;;12.48;7.00;;;5.10;51.50;;;;;;5058679;28;20158;-79
2022/01/22 00:19:23;;;;;;;9.52;4.20;;;5.30;50.90;;;;;;5057638;28;20094;-80
2022/01/22 00:21:50;;;;;;;11.88;8.57;;;5.00;51.80;;;;;;5058199;28;20036;-78
2022/01/22 00:24:17;;;;;;;11.70;4.10;;;5.10;51.70;;;;;;5056184;28;20025;-81
2022/01/22 00:26:44;;;;;;;13.48;6.30;;;5.00;52.20;;;;;;5056776;28;20147;-83
2022/01/22 00:29:10;;;;;;;11.02;4.13;;;5.00;51.70;;;;;;5076278;28;20024;-85
2022/01/22 00:31:39;;;;;;;16.10;3.85;;;4.90;51.60;;;;;;5076025;28;20029;-79
2022/01/22 00:34:06;;;;;;;9.93;3.75;;;4.60;52.20;;;;;;5058421;28;20028;-80
2022/01/22 00:36:32;;;;;;;7.00;3.55;;;4.90;52.50;;;;;;5056460;28;20081;-82
2022/01/22 00:38:58;;;;;;;6.47;3.50;;;5.00;52.30;;;;;;5076053;28;20035;-84
2022/01/22 00:41:25;;;;;;;9.82;3.72;;;5.10;51.60;;;;;;5057666;28;20491;-82
2022/01/22 00:43:51;;;;;;;8.70;3.40;;;5.30;51.20;;;;;;5076357;28;20413;-78
2022/01/22 00:46:17;;;;;;;8.80;3.20;;;5.30;51.50;;;;;;5057434;28;20029;-85
2022/01/22 00:48:42;;;;;;;7.80;3.50;;;5.80;50.80;;;;;;5075269;28;20093;-81
2022/01/22 00:51:08;;;;;;;8.27;3.83;;;5.80;49.70;;;;;;5075738;28;20047;-80
2022/01/22 00:53:34;;;;;;;8.18;3.40;;;5.60;50.50;;;;;;5075328;28;20023;-86
2022/01/22 00:55:59;;;;;;;7.88;4.05;;;5.30;51.10;;;;;;5057822;28;20111;-83
2022/01/22 00:58:25;;;;;;;6.38;3.22;;;5.30;50.90;;;;;;5075107;28;20025;-79
2022/01/22 01:00:51;;;;;;;6.22;3.33;;;5.60;50.80;;;;;;5057439;28;20041;-80
2022/01/22 01:03:17;;;;;;;8.10;3.30;;;5.00;51.40;;;;;;5057603;28;20082;-80
2022/01/22 01:05:43;;;;;;;7.57;3.28;;;5.40;51.30;;;;;;5075508;28;20487;-80
2022/01/22 01:08:08;;;;;;;7.80;3.58;;;5.60;50.60;;;;;;5057430;28;20041;-83
2022/01/22 01:10:34;;;;;;;7.45;3.28;;;5.50;50.50;;;;;;5057777;28;20029;-80
2022/01/22 01:13:00;;;;;;;11.20;3.00;;;5.30;50.80;;;;;;5075233;28;20024;-83
2022/01/22 01:32:16;;;;;;;8.32;3.03;;;5.10;51.00;;;;;;5012982;28;20108;-88
2022/01/22 01:34:44;;;;;;;5.32;2.63;;;5.00;51.10;;;;;;4996968;28;20045;-85
2022/01/22 01:37:14;;;;;;;5.03;2.72;;;5.00;51.40;;;;;;5013310;28;20033;-86
2022/01/22 01:39:41;;;;;;;;;;;4.80;51.50;;;;;;4994459;28;20034;-79
2022/01/22 01:42:14;;;;;;;7.30;2.40;;;4.60;52.00;;;;;;5010132;28;20327;-79
2022/01/22 01:44:40;;;;;;;6.35;2.80;;;4.50;51.50;;;;;;4996618;28;20037;-82
2022/01/22 01:47:09;;;;;;;6.65;2.83;;;4.60;52.10;;;;;;4996808;28;20030;-82
2022/01/22 01:49:35;;;;;;;5.78;2.42;;;4.60;51.80;;;;;;4996931;28;20036;-85
2022/01/22 01:52:05;;;;;;;8.88;2.85;;;4.50;52.20;;;;;;4997120;28;20026;-82
2022/01/22 01:54:47;;;;;;;7.22;3.33;;;4.40;52.40;;;;;;5025716;28;20037;-86
2022/01/22 01:57:38;;;;;;;5.35;2.42;;;4.60;52.60;;;;;;5048558;28;20028;-86
2022/01/22 02:00:08;;;;;;;4.95;2.70;;;4.60;51.80;;;;;;5056308;28;20028;-83
2022/01/22 02:02:35;;;;;;;6.00;2.65;;;4.30;52.10;;;;;;5062316;28;20025;-86
2022/01/22 02:05:01;;;;;;;6.05;2.60;;;4.60;52.90;;;;;;5057157;28;20127;-80
2022/01/22 02:07:27;;;;;;;5.25;2.40;;;4.40;52.50;;;;;;5074305;28;20104;-80
2022/01/22 02:09:52;;;;;;;6.88;2.10;;;4.50;52.70;;;;;;5074357;28;20017;-88
2022/01/22 02:13:01;;;;;;;6.80;2.33;;;4.40;52.50;;;;;;5074550;28;20378;-86
2022/01/22 02:25:57;;;;;;;4.20;2.03;;;4.70;52.60;;;;;;5074200;28;20032;-86
2022/01/22 02:28:23;;;;;;;6.65;2.42;;;4.80;52.60;;;;;;5055818;28;20020;-80
2022/01/22 02:30:55;;;;;;;6.38;2.53;;;4.90;51.90;;;;;;5074048;28;20372;-81
2022/01/22 02:35:58;;;;;;;6.05;2.28;;;5.10;51.90;;;;;;5073343;28;20414;-82
2022/01/22 02:38:42;;;;;;;5.55;2.10;;;4.90;51.80;;;;;;5073972;28;20020;-86
2022/01/22 02:41:13;;;;;;;5.85;2.70;;;4.60;52.80;;;;;;5074209;28;20431;-87
2022/01/22 02:43:39;;;;;;;6.28;2.33;;;5.00;52.60;;;;;;5055987;28;20116;-81
2022/01/22 02:46:05;;;;;;;8.02;2.28;;;5.50;51.40;;;;;;5073710;28;20108;-82
2022/01/22 02:48:30;;;;;;;5.75;2.30;;;5.60;51.40;;;;;;5055508;28;20120;-86
2022/01/22 02:50:56;;;;;;;5.35;2.30;;;5.40;51.40;;;;;;5054744;28;20502;-86
2022/01/22 02:53:22;;;;;;;4.40;2.28;;;5.20;51.80;;;;;;5073466;28;20088;-84
2022/01/22 02:55:47;;;;;;;8.27;2.80;;;5.10;52.10;;;;;;5073129;28;20039;-87
2022/01/22 02:58:15;;;;;;;7.13;2.90;;;5.50;51.80;;;;;;5073542;28;20383;-80
2022/01/22 03:00:41;;;;;;;7.05;2.50;;;5.90;51.00;;;;;;5055019;28;20105;-82
2022/01/22 03:03:07;;;;;;;5.22;2.45;;;6.10;50.80;;;;;;5055897;28;20442;-78
2022/01/22 03:05:33;;;;;;;6.65;2.13;;;6.50;50.30;;;;;;5055617;28;20024;-81
2022/01/22 03:08:04;;;;;;;4.50;2.40;;;6.60;49.30;;;;;;5055348;28;20064;-80
2022/01/22 03:10:31;;;;;;;5.45;2.50;;;6.10;50.50;;;;;;5053823;28;20025;-86
2022/01/22 03:15:48;;;;;;;7.55;2.35;;;5.60;51.30;;;;;;5073565;28;20026;-79
2022/01/22 03:18:20;;;;;;;6.00;2.20;;;5.80;51.50;;;;;;5072935;28;20537;-82
2022/01/22 03:28:55;;;;;;;6.35;2.55;;;5.40;52.00;;;;;;5073016;28;20498;-87
2022/01/22 03:31:21;;;;;;;5.47;2.40;;;5.60;52.10;;;;;;5070216;28;20129;-88
2022/01/22 03:33:47;;;;;;;6.43;2.60;;;5.80;53.10;;;;;;5055732;28;20028;-88
2022/01/22 03:36:18;;;;;;;6.80;2.53;;;5.60;53.60;;;;;;5056151;28;20021;-86
2022/01/22 03:38:44;;;;;;;5.25;2.42;;;5.00;55.00;;;;;;5072743;28;20115;-79
2022/01/22 03:41:09;;;;;;;4.88;2.40;;;4.80;56.50;;;;;;5055324;28;20039;-81
2022/01/22 03:43:35;;;;;;;4.80;2.50;;;4.90;57.00;;;;;;5055445;28;20025;-81
2022/01/22 03:46:01;;;;;;;7.47;2.20;;;5.20;57.00;;;;;;5055458;28;20033;-79
2022/01/22 03:48:27;;;;;;;4.93;2.40;;;4.90;58.50;;;;;;5054501;28;20395;-81
2022/01/22 03:50:53;;;;;;;6.63;2.80;;;5.10;58.80;;;;;;5054544;28;20032;-80
2022/01/22 03:53:19;;;;;;;5.00;2.42;;;4.90;59.00;;;;;;5054718;28;20028;-80
2022/01/22 03:58:10;;;;;;;5.07;2.40;;;5.20;58.90;;;;;;5072937;28;20039;-80
2022/01/22 04:00:36;;;;;;;6.22;2.47;;;4.90;59.80;;;;;;5054706;28;20119;-80
2022/01/22 04:03:40;;;;;;;5.00;2.70;;;4.90;60.80;;;;;;5055360;28;20052;-85
2022/01/22 04:06:19;;;;;;;7.65;2.67;;;5.00;60.30;;;;;;5069450;28;20069;-81
2022/01/22 04:08:40;;;;;;;6.60;2.70;;;5.20;60.40;;;;;;5072233;28;20029;-80
2022/01/22 04:11:11;;;;;;;7.25;3.00;;;5.40;60.30;;;;;;5055408;28;20047;-84
2022/01/22 04:13:37;;;;;;;8.25;2.80;;;5.40;60.50;;;;;;5054751;28;20032;-79
2022/01/22 04:16:02;;;;;;;5.15;2.67;;;5.40;60.40;;;;;;5054763;28;20082;-87
2022/01/22 04:26:56;;;;;;;9.20;3.30;;;5.20;61.60;;;;;;5071804;28;20052;-80
2022/01/22 04:29:23;;;;;;;8.02;2.88;;;5.40;61.40;;;;;;5072552;28;20463;-80
2022/01/22 04:31:49;;;;;;;5.78;2.67;;;5.50;60.90;;;;;;5054832;28;20079;-85
2022/01/22 04:34:15;;;;;;;8.18;3.05;;;5.60;61.20;;;;;;5054554;28;20063;-80
2022/01/22 04:36:40;;;;;;;7.03;2.85;;;5.90;60.80;;;;;;5054809;28;20024;-80
2022/01/22 04:39:06;;;;;;;6.53;2.90;;;5.90;60.00;;;;;;5054467;28;20025;-87
2022/01/22 04:41:32;;;;;;;5.88;3.10;;;5.40;61.80;;;;;;5072113;28;20036;-86
2022/01/22 04:44:02;;;;;;;6.78;3.53;;;5.40;62.10;;;;;;5056067;28;20032;-80
2022/01/22 04:55:00;;;;;;;8.60;3.80;;;6.40;59.80;;;;;;5034563;28;20462;-88
2022/01/22 04:57:32;;;;;;;8.55;4.25;;;6.60;59.60;;;;;;5017385;28;20092;-81
2022/01/22 04:59:58;;;;;;;10.55;4.80;;;6.80;59.30;;;;;;5017311;28;20610;-79
2022/01/22 05:02:24;;;;;;;12.30;4.63;;;7.00;58.90;;;;;;5033713;28;20045;-80
2022/01/22 05:04:50;;;;;;;10.10;4.30;;;7.20;57.90;;;;;;5016957;28;20026;-79
2022/01/22 05:07:16;;;;;;;12.23;6.07;;;6.80;59.10;;;;;;5016840;28;20029;-82
2022/01/22 05:09:41;;;;;;;14.90;6.93;;;6.60;60.10;;;;;;5033469;28;20038;-80
2022/01/22 05:12:08;;;;;;;9.18;4.57;;;6.80;59.40;;;;;;5033661;28;20071;-80
2022/01/22 05:14:34;;;;;;;15.63;5.88;;;6.70;59.10;;;;;;5016788;28;20465;-80
2022/01/22 05:17:02;;;;;;;8.10;4.22;;;6.60;59.60;;;;;;5016476;28;20125;-86
2022/01/22 05:19:49;;;;;;;7.85;4.18;;;6.50;59.40;;;;;;5017009;28;20029;-81
2022/01/22 05:24:44;;;;;;;8.95;4.30;;;6.70;59.30;;;;;;5033670;28;20109;-83
2022/01/22 05:27:29;;;;;;;9.88;4.20;;;6.90;59.10;;;;;;5016644;28;20120;-86
2022/01/22 05:37:39;;;;;;;8.82;3.33;;;6.70;59.50;;;;;;5074933;28;20039;-82
2022/01/22 05:40:06;;;;;;;10.00;5.85;;;6.50;59.40;;;;;;5074697;28;20036;-84
2022/01/22 05:42:36;;;;;;;9.45;5.10;;;6.60;59.30;;;;;;5075007;28;20142;-84
2022/01/22 05:45:03;;;;;;;10.57;5.28;;;6.10;60.90;;;;;;5061151;28;20372;-80
2022/01/22 05:47:29;;;;;;;7.25;3.38;;;5.80;61.60;;;;;;5056189;28;20028;-79
2022/01/22 05:49:55;;;;;;;52.75;16.52;;;5.70;61.80;;;;;;5056988;28;20027;-86
2022/01/22 05:52:30;;;;;;;12.13;5.10;;;5.60;61.80;;;;;;5042738;28;20033;-79
2022/01/22 06:00:12;;;;;;;9.38;4.45;;;5.20;63.10;;;;;;5071522;28;20103;-79
2022/01/22 06:02:38;;;;;;;7.85;3.72;;;5.20;63.40;;;;;;5073744;28;20067;-79
2022/01/22 06:05:20;;;;;;;6.65;3.60;;;4.90;64.30;;;;;;4892187;28;10000447;-80
2022/01/22 06:07:46;;;;;;;6.47;3.88;;;4.90;64.60;;;;;;5034164;28;20232;-78
2022/01/22 06:10:18;;;;;;;9.75;4.43;;;5.00;64.30;;;;;;5034977;28;20032;-80
2022/01/22 06:15:12;;;;;;;9.80;4.85;;;5.50;63.20;;;;;;5053657;28;20445;-78
2022/01/22 06:17:38;;;;;;;6.15;3.55;;;5.50;62.30;;;;;;5043251;28;20749;-79
2022/01/22 06:20:05;;;;;;;8.60;4.15;;;5.50;62.20;;;;;;5037491;28;20056;-79
2022/01/22 06:22:31;;;;;;;6.32;4.20;;;5.80;62.20;;;;;;5052256;28;20089;-83
2022/01/22 06:24:57;;;;;;;5.95;3.53;;;5.80;61.40;;;;;;5052353;28;20028;-82
2022/01/22 06:27:23;;;;;;;6.80;3.80;;;5.50;62.60;;;;;;5053651;28;20023;-83
2022/01/22 06:29:48;;;;;;;6.57;3.50;;;5.70;61.90;;;;;;5071634;28;20024;-79
2022/01/22 06:32:15;;;;;;;8.60;4.43;;;6.00;61.60;;;;;;5053348;28;20028;-78
2022/01/22 06:34:40;;;;;;;6.50;3.97;;;6.20;60.70;;;;;;5042766;28;20087;-85
2022/01/22 06:37:06;;;;;;;9.00;4.60;;;6.40;59.90;;;;;;5034891;28;20025;-78
2022/01/22 06:39:41;;;;;;;18.42;9.05;;;6.40;59.70;;;;;;5032575;28;20036;-81
2022/01/22 06:42:07;;;;;;;12.90;6.60;;;6.60;59.30;;;;;;5043566;28;20033;-85
2022/01/22 06:44:34;;;;;;;18.73;8.75;;;6.30;59.60;;;;;;5052187;28;20016;-82
2022/01/22 06:47:00;;;;;;;15.55;7.63;;;6.00;60.00;;;;;;5052609;28;20082;-82
2022/01/22 06:49:26;;;;;;;14.02;5.90;;;6.10;60.00;;;;;;5041846;28;20063;-78
2022/01/22 06:51:54;;;;;;;7.28;4.35;;;6.10;59.90;;;;;;5041542;28;20468;-78
2022/01/22 06:54:21;;;;;;;7.95;4.45;;;6.20;60.30;;;;;;5062044;28;20353;-82
2022/01/22 06:56:47;;;;;;;9.00;5.10;;;6.20;59.60;;;;;;5037563;28;20093;-86
2022/01/22 06:59:13;;;;;;;29.15;14.98;;;6.00;60.30;;;;;;5043930;28;20024;-81
2022/01/22 07:01:39;;;;;;;35.47;19.55;;;5.80;60.80;;;;;;5037366;28;20094;-85
2022/01/22 07:04:07;;;;;;;11.25;7.00;;;6.00;60.80;;;;;;5039581;28;20383;-77
2022/01/22 07:06:32;;;;;;;9.70;5.55;;;6.20;60.20;;;;;;5042804;28;20024;-83
2022/01/22 07:08:58;;;;;;;8.32;5.10;;;5.80;61.00;;;;;;5056922;28;20032;-78
2022/01/22 07:11:24;;;;;;;12.07;6.38;;;5.80;61.20;;;;;;5047330;28;20020;-78
2022/01/22 07:13:50;;;;;;;12.98;7.50;;;5.60;61.80;;;;;;5046515;28;20025;-78
2022/01/22 07:16:16;;;;;;;11.70;6.75;;;6.10;61.20;;;;;;5053478;28;20445;-80
2022/01/22 07:18:43;;;;;;;13.02;6.90;;;6.30;60.10;;;;;;5052784;28;20556;-78
2022/01/22 07:21:14;;;;;;;12.02;6.05;;;6.20;60.30;;;;;;5054138;28;20060;-78
2022/01/22 07:24:23;;;;;;;29.17;16.42;;;6.40;60.20;;;;;;5053578;28;20472;-78
2022/01/22 07:26:31;;;;;;;34.75;17.40;;;6.90;59.30;;;;;;5053896;28;20084;-85
2022/01/22 07:28:57;;;;;;;22.58;12.00;;;7.30;58.60;;;;;;5042079;28;20020;-79
2022/01/22 07:31:26;;;;;;;18.00;11.35;;;7.60;57.20;;;;;;5041977;28;20020;-81
2022/01/22 07:33:51;;;;;;;9.73;6.10;;;7.60;57.10;;;;;;5063420;28;20025;-78
2022/01/22 07:36:17;;;;;;;26.48;18.77;;;7.50;57.20;;;;;;5051878;28;20032;-85
2022/01/22 07:38:43;;;;;;;22.42;9.70;;;7.70;56.70;;;;;;5032765;28;20527;-78
2022/01/22 07:41:09;;;;;;;12.15;5.85;;;7.80;56.50;;;;;;5035959;28;20456;-80
2022/01/22 07:43:36;;;;;;;11.70;6.07;;;7.60;56.50;;;;;;5042105;28;20025;-88
2022/01/22 07:46:03;;;;;;;11.80;6.43;;;7.40;57.10;;;;;;5063021;28;20367;-77
2022/01/22 07:48:28;;;;;;;18.83;9.50;;;7.60;56.90;;;;;;5052606;28;20028;-77
2022/01/22 07:50:54;;;;;;;33.88;14.85;;;7.80;57.00;;;;;;5053464;28;20537;-82
2022/01/22 07:53:20;;;;;;;7.75;4.10;;;7.60;56.20;;;;;;5053514;28;20103;-78
2022/01/22 07:55:45;;;;;;;10.38;5.20;;;7.50;56.40;;;;;;5054635;28;20475;-88
2022/01/22 07:58:11;;;;;;;12.85;6.20;;;7.50;56.10;;;;;;5053965;28;20029;-78
2022/01/22 08:00:38;;;;;;;7.25;3.63;;;7.40;56.60;;;;;;5071844;28;20039;-92
2022/01/22 08:03:06;;;;;;;6.18;3.40;;;7.40;57.00;;;;;;5054862;28;20039;-78
2022/01/22 08:05:32;;;;;;;8.15;3.70;;;7.30;57.00;;;;;;5052467;28;20050;-78
2022/01/22 08:07:57;;;;;;;8.32;3.95;;;7.40;56.80;;;;;;5072064;28;20027;-76
2022/01/22 08:10:25;;;;;;;7.72;4.38;;;7.50;56.90;;;;;;5054090;28;20024;-82
2022/01/22 08:12:53;;;;;;;7.85;4.75;;;7.70;56.80;;;;;;5054466;28;20505;-79
2022/01/22 08:15:19;;;;;;;11.95;5.10;;;7.60;56.60;;;;;;5053185;28;20439;-90
2022/01/22 08:17:45;;;;;;;8.63;3.40;;;7.70;56.70;;;;;;5053754;28;20108;-79
2022/01/22 08:20:14;;;;;;;5.45;3.28;;;7.50;56.50;;;;;;5056308;28;20059;-91
2022/01/22 08:22:40;;;;;;;8.02;3.60;;;7.50;56.60;;;;;;5075062;28;20028;-82
2022/01/22 08:25:07;;;;;;;7.28;3.50;;;7.40;56.80;;;;;;5075162;28;20111;-78
2022/01/22 08:27:40;;;;;;;7.53;5.03;;;7.60;56.70;;;;;;5058414;28;20024;-83
2022/01/22 08:30:09;;;;;;;7.95;5.28;;;7.30;57.20;;;;;;5056180;28;20051;-80
2022/01/22 08:37:45;;;;;;;10.15;4.55;;;6.90;57.90;;;;;;5072374;28;20043;-80
2022/01/22 08:40:11;;;;;;;7.18;4.38;;;7.20;57.50;;;;;;5072172;28;20033;-83
2022/01/22 08:42:37;;;;;;;6.93;3.47;;;7.20;56.90;;;;;;5070622;28;20395;-79
2022/01/22 08:45:04;;;;;;;5.47;3.42;;;7.40;56.00;;;;;;5053431;28;20017;-79
2022/01/22 08:47:30;;;;;;;8.65;5.28;;;7.50;55.70;;;;;;5052151;28;20032;-79
2022/01/22 08:49:55;;;;;;;9.07;5.15;;;8.20;53.80;;;;;;5038230;28;20028;-79
2022/01/22 08:52:25;;;;;;;6.07;3.33;;;8.60;52.30;;;;;;5037388;28;20025;-81
2022/01/22 08:54:51;;;;;;;7.18;4.13;;;8.50;52.60;;;;;;5037037;28;20036;-79
2022/01/22 08:57:18;;;;;;;5.47;3.60;;;8.40;51.80;;;;;;5034359;28;20036;-90
2022/01/22 08:59:45;;;;;;;9.48;5.28;;;9.70;50.40;;;;;;5033691;28;20032;-79
2022/01/22 09:02:14;;;;;;;5.50;3.20;;;11.60;47.50;;;;;;5033696;28;20044;-80
2022/01/22 09:04:40;;;;;;;5.40;3.40;;;13.40;44.60;;;;;;5033104;28;20028;-80
2022/01/22 09:07:06;;;;;;;5.95;4.00;;;14.60;43.40;;;;;;4698946;28;9999812;-80
2022/01/22 09:09:32;;;;;;;6.07;3.20;;;16.10;41.60;;;;;;5055225;28;20020;-80
2022/01/22 09:11:57;;;;;;;5.50;3.58;;;17.30;40.80;;;;;;5055569;28;20490;-79
2022/01/22 09:14:23;;;;;;;7.93;4.80;;;18.40;39.50;;;;;;5055805;28;20032;-85
2022/01/22 09:16:51;;;;;;;6.35;3.35;;;19.10;37.70;;;;;;5051499;28;20063;-80
2022/01/22 09:19:18;;;;;;;5.43;3.33;;;20.00;37.40;;;;;;5072175;28;20035;-80
2022/01/22 09:21:46;;;;;;;5.22;2.65;;;20.80;36.40;;;;;;5052892;28;20032;-84
2022/01/22 09:24:15;;;;;;;4.70;2.80;;;21.90;35.60;;;;;;5036636;28;20390;-80
2022/01/22 09:26:41;;;;;;;5.63;2.97;;;21.90;35.70;;;;;;5036095;28;20032;-87
2022/01/22 09:29:07;;;;;;;181.43;151.63;;;22.30;34.90;;;;;;5036087;28;20115;-90
2022/01/22 09:31:34;;;;;;;28.42;25.70;;;22.50;34.90;;;;;;5054584;28;20032;-83
2022/01/22 09:34:01;;;;;;;118.95;107.93;;;23.30;34.00;;;;;;5053873;28;20143;-83
2022/01/22 09:36:28;;;;;;;57.92;52.45;;;22.80;33.60;;;;;;5036007;28;20024;-79
2022/01/22 09:38:54;;;;;;;26.00;23.48;;;22.20;33.90;;;;;;5035932;28;20033;-79
2022/01/22 09:41:25;;;;;;;8.80;7.32;;;21.20;34.60;;;;;;5035337;28;20133;-83
2022/01/22 09:43:52;;;;;;;30.25;27.30;;;20.40;35.00;;;;;;5053245;28;20033;-80
2022/01/22 09:46:20;;;;;;;17.15;15.27;;;20.60;35.10;;;;;;5035709;28;20146;-78
2022/01/22 09:48:47;;;;;;;92.97;83.88;;;20.60;34.40;;;;;;5035912;28;20021;-85
2022/01/22 09:51:13;;;;;;;108.07;99.45;;;20.80;34.10;;;;;;5046771;28;20027;-81
2022/01/22 09:53:40;;;;;;;16.95;15.43;;;20.10;34.60;;;;;;5073941;28;20420;-78
2022/01/22 09:56:06;;;;;;;18.80;17.23;;;19.50;33.80;;;;;;5055264;28;20054;-82
2022/01/22 09:58:32;;;;;;;9.82;6.80;;;20.20;34.40;;;;;;5056118;28;20029;-81
2022/01/22 10:01:18;;;;;;;10.75;8.15;;;21.70;34.80;;;;;;5055595;28;20032;-79
2022/01/22 10:03:43;;;;;;;26.33;23.80;;;22.20;33.50;;;;;;5054923;28;20025;-78
2022/01/22 10:06:20;;;;;;;10.32;6.72;;;22.60;32.80;;;;;;5072534;28;20031;-81
2022/01/22 10:08:46;;;;;;;9.93;8.23;;;22.80;32.80;;;;;;5055577;28;20021;-79
2022/01/22 10:11:26;;;;;;;5.50;3.30;;;22.70;32.80;;;;;;5055075;28;20052;-85
2022/01/22 10:13:56;;;;;;;5.43;3.60;;;23.10;32.70;;;;;;5053297;28;20033;-88
2022/01/22 10:16:23;;;;;;;23.65;20.08;;;22.40;32.10;;;;;;5036200;28;20036;-84
2022/01/22 10:19:08;;;;;;;13.35;10.80;;;21.50;33.20;;;;;;5035366;28;20032;-81
2022/01/22 10:21:34;;;;;;;7.47;4.25;;;21.00;33.30;;;;;;5051958;28;20060;-87
2022/01/22 10:24:43;;;;;;;4.30;2.30;;;21.20;33.50;;;;;;5034506;28;20549;-85
2022/01/22 10:27:25;;;;;;;7.68;3.80;;;20.80;33.50;;;;;;5040269;28;20024;-90
2022/01/22 10:29:56;;;;;;;7.78;3.00;;;21.70;32.80;;;;;;5044875;28;20089;-82
2022/01/22 10:32:33;;;;;;;6.75;4.15;;;20.90;33.40;;;;;;5042688;28;20024;-85
2022/01/22 10:35:08;;;;;;;90.75;76.20;;;20.40;33.50;;;;;;5060852;28;20053;-84
2022/01/22 10:37:34;;;;;;;18.45;13.07;;;19.80;34.10;;;;;;5059050;28;20028;-87
2022/01/22 10:40:28;;;;;;;7.55;5.60;;;19.50;34.60;;;;;;5037285;28;20021;-85
2022/01/22 10:46:34;;;;;;;5.47;3.97;;;21.00;33.20;;;;;;5058612;28;20484;-82
2022/01/22 10:49:07;;;;;;;18.15;15.55;;;21.30;33.60;;;;;;5044802;28;20455;-90
2022/01/22 10:51:51;;;;;;;9.10;5.85;;;21.30;33.30;;;;;;5034630;28;20021;-83
2022/01/22 10:54:22;;;;;;;27.20;17.80;;;20.60;33.10;;;;;;5046322;28;20062;-81
2022/01/22 10:56:50;;;;;;;4.35;2.38;;;19.00;33.40;;;;;;5044419;28;20029;-85
2022/01/22 10:59:18;;;;;;;9.10;6.65;;;17.90;33.90;;;;;;5046804;28;20032;-85
2022/01/22 11:01:59;;;;;;;5.63;3.72;;;15.90;35.50;;;;;;5036290;28;20047;-82
2022/01/22 11:04:30;;;;;;;6.00;2.40;;;14.70;36.80;;;;;;5036099;28;20391;-90
2022/01/22 11:06:59;;;;;;;4.75;2.50;;;13.20;37.40;;;;;;5043829;28;20111;-90
2022/01/22 11:09:29;;;;;;;5.40;3.03;;;12.50;38.70;;;;;;5056428;28;20024;-82
2022/01/22 11:11:55;;;;;;;3.92;2.30;;;11.90;39.20;;;;;;5074155;28;20028;-86
2022/01/22 11:14:21;;;;;;;5.60;2.95;;;11.80;39.30;;;;;;5055980;28;20032;-89
2022/01/22 11:16:49;;;;;;;6.50;2.83;;;11.60;40.10;;;;;;5056718;28;20024;-86
2022/01/22 11:19:23;;;;;;;5.25;2.00;;;11.70;39.60;;;;;;5073870;28;20021;-88
2022/01/22 11:21:52;;;;;;;9.65;7.07;;;11.30;39.40;;;;;;5073402;28;20074;-85
2022/01/22 11:24:25;;;;;;;4.88;2.05;;;10.60;40.50;;;;;;5055075;28;20017;-80
2022/01/22 11:26:57;;;;;;;5.50;2.40;;;10.10;40.60;;;;;;5072324;28;20082;-81
2022/01/22 11:29:31;;;;;;;5.13;3.38;;;10.40;41.20;;;;;;5054770;28;20024;-90
2022/01/22 11:32:00;;;;;;;4.32;2.10;;;9.90;41.90;;;;;;5073005;28;20028;-81
2022/01/22 11:34:31;;;;;;;4.90;2.40;;;9.50;41.60;;;;;;5054510;28;20074;-84
2022/01/22 11:37:31;;;;;;;4.97;2.15;;;9.40;42.50;;;;;;5055488;28;20033;-86
2022/01/22 11:40:21;;;;;;;6.88;4.78;;;8.90;43.50;;;;;;5055457;28;20075;-81
2022/01/22 11:43:03;;;;;;;4.75;2.35;;;8.50;44.20;;;;;;5073052;28;20033;-87
2022/01/22 11:45:44;;;;;;;9.85;5.68;;;9.00;43.70;;;;;;5055835;28;20032;-90
2022/01/22 11:48:26;;;;;;;10.88;6.60;;;9.10;43.40;;;;;;5074019;28;20068;-91
2022/01/22 11:51:21;;;;;;;12.15;7.03;;;8.50;44.10;;;;;;5055992;28;20030;-92
2022/01/22 11:54:06;;;;;;;9.90;4.72;;;8.70;44.10;;;;;;5043494;28;20020;-82
2022/01/22 11:56:52;;;;;;;5.13;2.70;;;8.90;44.00;;;;;;5077197;28;20025;-87
2022/01/22 11:59:29;;;;;;;86.10;65.05;;;8.70;43.80;;;;;;5059562;28;20017;-88
2022/01/22 12:01:59;;;;;;;10.02;5.60;;;8.50;44.60;;;;;;5076866;28;20036;-90
2022/01/22 12:04:28;;;;;;;6.65;3.30;;;8.80;44.10;;;;;;5059479;28;20360;-90
2022/01/22 12:07:02;;;;;;;4.28;2.35;;;9.10;42.30;;;;;;5077081;28;20033;-89
2022/01/22 12:09:31;;;;;;;4.03;2.00;;;9.00;41.70;;;;;;5077500;28;20031;-91
2022/01/22 12:14:56;;;;;;;14.48;8.13;;;8.10;40.70;;;;;;5077233;28;20093;-90
2022/01/22 12:23:31;;;;;;;4.05;2.15;;;7.90;43.10;;;;;;4956779;29;20657;-89
2022/01/22 12:25:59;;;;;;;16.88;10.98;;;8.50;41.80;;;;;;4940397;29;20039;-89
2022/01/22 12:28:42;;;;;;;33.22;22.38;;;8.60;41.10;;;;;;4940496;29;20042;-90
2022/01/22 12:31:19;;;;;;;5.60;2.53;;;8.40;41.80;;;;;;4940790;29;20104;-84
2022/01/22 12:33:49;;;;;;;6.78;2.45;;;8.60;41.60;;;;;;4940486;29;20027;-85
2022/01/22 12:36:20;;;;;;;3.72;2.08;;;9.00;40.80;;;;;;4956664;29;20561;-88
2022/01/22 12:39:10;;;;;;;5.05;2.30;;;9.30;39.20;;;;;;4940245;29;20027;-83
2022/01/22 12:44:11;;;;;;;14.55;6.70;;;8.60;40.10;;;;;;4956461;29;20038;-88
2022/01/22 12:46:37;;;;;;;4.53;2.83;;;8.40;40.90;;;;;;4940192;29;20062;-88
2022/01/22 12:49:05;;;;;;;81.50;52.30;;;8.50;40.10;;;;;;4956279;29;20023;-87
2022/01/22 12:51:31;;;;;;;5.65;3.00;;;8.50;41.30;;;;;;4940245;29;20410;-89
2022/01/22 12:53:58;;;;;;;5.25;2.70;;;8.60;40.60;;;;;;4940237;29;20122;-87
2022/01/22 12:57:09;;;;;;;7.47;3.88;;;8.30;40.90;;;;;;4939711;29;20067;-86
2022/01/22 12:59:11;;;;;;;20.88;14.35;;;8.40;40.80;;;;;;4956195;29;20035;-87
2022/01/22 13:01:46;;;;;;;5.47;3.78;;;8.20;41.10;;;;;;4552362;28;10002819;-82
2022/01/22 13:04:12;;;;;;;5.30;2.85;;;8.30;41.30;;;;;;4704269;28;10000107;-80
2022/01/22 13:06:37;;;;;;;72.65;41.72;;;8.50;41.10;;;;;;5057323;28;20024;-82
2022/01/22 13:09:03;;;;;;;50.22;33.67;;;8.80;40.20;;;;;;5057975;28;20098;-86
2022/01/22 13:11:31;;;;;;;4.63;2.67;;;9.00;40.10;;;;;;5075584;28;20100;-80
2022/01/22 13:13:58;;;;;;;4.03;2.10;;;8.90;39.20;;;;;;5075523;28;20380;-83
2022/01/22 13:16:25;;;;;;;5.00;2.22;;;8.70;39.80;;;;;;5057791;28;20021;-87
2022/01/22 13:19:00;;;;;;;6.07;2.40;;;8.90;40.30;;;;;;5057209;28;20032;-86
2022/01/22 13:21:31;;;;;;;7.18;3.03;;;8.40;40.00;;;;;;5057240;28;20092;-81
2022/01/22 13:24:07;;;;;;;4.70;2.28;;;8.30;40.20;;;;;;5075333;28;20048;-84
2022/01/22 13:27:12;;;;;;;4.43;2.10;;;8.00;40.50;;;;;;5057627;28;20443;-82
2022/01/22 13:29:50;;;;;;;5.60;2.40;;;8.00;40.20;;;;;;5057697;28;20352;-81
2022/01/22 13:35:18;;;;;;;4.05;2.15;;;6.80;41.20;;;;;;5075701;28;20040;-83
2022/01/22 13:48:29;;;;;;;8.93;4.05;;;7.20;40.90;;;;;;5075395;28;20059;-86
2022/01/22 13:50:55;;;;;;;4.63;2.60;;;7.60;40.80;;;;;;5056774;28;20020;-85
2022/01/22 13:53:22;;;;;;;33.10;18.63;;;7.70;40.70;;;;;;5074887;28;20123;-85
2022/01/22 13:56:07;;;;;;;57.20;30.10;;;7.80;41.50;;;;;;5074859;28;20021;-86
2022/01/22 13:58:33;;;;;;;63.92;40.58;;;8.20;41.20;;;;;;5056808;28;20383;-84
2022/01/22 14:01:05;;;;;;;38.05;18.58;;;8.20;40.30;;;;;;5074861;28;20040;-89
2022/01/22 14:03:39;;;;;;;8.23;3.97;;;8.40;41.00;;;;;;5056955;28;20021;-87
2022/01/22 14:06:09;;;;;;;23.73;11.35;;;7.90;40.20;;;;;;5056550;28;20081;-86
2022/01/22 14:08:35;;;;;;;7.28;3.25;;;7.90;40.60;;;;;;5056803;28;20112;-82
2022/01/22 14:11:07;;;;;;;9.98;4.35;;;7.90;40.40;;;;;;5074319;28;20103;-83
2022/01/22 14:13:34;;;;;;;6.20;3.15;;;8.50;40.30;;;;;;5056442;28;20021;-82
2022/01/22 14:16:20;;;;;;;14.20;6.30;;;8.60;40.00;;;;;;5056579;28;20029;-85
2022/01/22 14:18:46;;;;;;;7.88;3.08;;;8.50;40.20;;;;;;5056183;28;20028;-82
2022/01/22 14:21:20;;;;;;;14.13;6.55;;;8.20;40.10;;;;;;5056285;28;20098;-81
2022/01/22 14:23:48;;;;;;;7.13;3.67;;;7.80;40.80;;;;;;5056868;28;20123;-82
2022/01/22 14:26:25;;;;;;;6.68;3.17;;;7.30;41.20;;;;;;5056636;28;20379;-85
2022/01/22 14:29:01;;;;;;;13.27;5.38;;;7.00;42.00;;;;;;5074325;28;20020;-85
2022/01/22 14:31:44;;;;;;;5.95;3.10;;;7.40;41.70;;;;;;5056345;28;20043;-82
2022/01/22 14:34:28;;;;;;;5.70;2.88;;;7.60;41.80;;;;;;5056122;28;20024;-85
2022/01/22 14:36:54;;;;;;;5.13;2.88;;;7.80;41.30;;;;;;5056369;28;20121;-84
2022/01/22 14:44:55;;;;;;;7.10;3.40;;;8.00;41.00;;;;;;5074467;28;20368;-86
2022/01/22 14:47:28;;;;;;;6.22;2.97;;;7.90;41.10;;;;;;5056229;28;20273;-83
2022/01/22 14:50:05;;;;;;;7.07;3.40;;;7.30;41.10;;;;;;5056497;28;20032;-82
2022/01/22 14:52:31;;;;;;;5.47;3.10;;;6.40;42.30;;;;;;5055866;28;20021;-85
2022/01/22 14:54:59;;;;;;;16.88;9.98;;;6.20;42.90;;;;;;5055558;28;20560;-85
2022/01/22 14:57:31;;;;;;;7.45;3.58;;;6.70;42.70;;;;;;5055678;28;20456;-87
2022/01/22 14:59:58;;;;;;;43.75;24.05;;;7.10;42.20;;;;;;5056464;28;20028;-88
2022/01/22 15:02:24;;;;;;;43.70;30.02;;;7.80;41.20;;;;;;5056002;28;20024;-84